Accueil
METAR-TAF:

METAR-TAF

Aéroports :

Cannes, France

Aéroport de Cannes - Mandelieu

latitude: 43-33N, longitude: 006-57E, altitude: 3 m

Observation

Le bulletin a été fait il y a 34 minutes, à 21:30 UTC
Vent 5 kt de nord/nord-est, variant entre nord-ouest et nord-est
Température 12°C
Humidité 94%
Pression 1019 hPa
Visibilité: 6000 m
Nuages fragmentés à une hauteur de 3400 ft
Ciel couvert à une hauteur de 4300 ft

METAR: LFMD 242130Z AUTO 02005KT 320V050 6000 BKN034 OVC043 12/11 Q1019

Heure: 23:04 (22:04 UTC)

Prévision

Le bulletin a été fait il y a 8 heures et 4 minutes, à 14:00 UTC
Prévision valable du 24 à 15 UTC au 25 à 15 UTC
Vent 5 kt de nord
Visibilité 10 km ou plus
Nuages fragmentés à une hauteur de 4000 ft
Evoluant progressivement
du 25 à 12 UTC au 25 à 14 UTC
Vent 10 kt de ouest/sud-ouest

TAF: LFMD 241400Z 2415/2515 01005KT 9999 BKN040 BECMG 2512/2514 25010KT

Observations et prévisions météorologiques de plus de 4000 aéroports (messages METAR et TAF).

Les stations disponibles sont représentées par des disques jaunes et rouges sur la carte.

Passer la souris dessus pour voir le nom de la station.

Cliquer dessus pour voir les observations et prévisions météorologiques.

Pour changer de carte: cliquez sur les boutons verts avec une croix noire pour zoomer, sur le bouton vert avec un tiret pour effectuer un zoom arrière, ou sur les flèches vertes pour les cartes adjacentes.


METAR-TAF: